Time;durP1;ratioP1;P1;durP2;ratioP2;P2;SDS_P1;SDS_P2;PMS_P1;PMS_P2;Temp;Humidity;BMP_temperature;BMP_pressure;BME280_temperature;BME280_humidity;BME280_pressure;Samples;Min_cycle;Max_cycle;Signal;HPM_P1;HPM_P2
2021/08/19 00:01:18;;;;;;;2.60;2.33;;;;;;;17.91;100.00;100951.77;1641290;87;21046;-81
2021/08/19 00:03:47;;;;;;;2.50;2.30;;;;;;;17.92;100.00;100968.36;1641405;87;21193;-78
2021/08/19 00:06:14;;;;;;;3.75;2.15;;;;;;;17.92;100.00;100978.86;1641390;87;20978;-77
2021/08/19 00:08:42;;;;;;;2.40;2.20;;;;;;;17.90;100.00;100985.55;1641286;87;20987;-81
2021/08/19 00:11:10;;;;;;;3.00;2.02;;;;;;;17.87;100.00;100988.94;1641391;87;21063;-81
2021/08/19 00:13:40;;;;;;;2.42;2.22;;;;;;;17.86;100.00;100997.33;1641687;87;20884;-78
2021/08/19 00:16:08;;;;;;;5.20;3.77;;;;;;;17.87;100.00;101013.41;1641491;87;21209;-79
2021/08/19 00:18:38;;;;;;;4.70;2.55;;;;;;;17.81;100.00;101026.25;1641487;87;21085;-77
2021/08/19 00:21:05;;;;;;;5.85;3.05;;;;;;;17.70;100.00;101046.93;1641434;87;21019;-75
2021/08/19 00:23:35;;;;;;;4.78;2.52;;;;;;;17.62;100.00;101066.93;1641670;87;20982;-79
2021/08/19 00:26:04;;;;;;;6.45;3.02;;;;;;;17.60;100.00;101074.13;1641494;87;21036;-82
2021/08/19 00:28:32;;;;;;;5.37;2.92;;;;;;;17.59;100.00;101066.73;1641372;87;21173;-82
2021/08/19 00:31:01;;;;;;;6.80;3.62;;;;;;;17.58;100.00;101059.81;1641322;87;21572;-84
2021/08/19 00:33:30;;;;;;;7.67;4.70;;;;;;;17.58;100.00;101053.25;1641495;87;21026;-77
2021/08/19 00:35:58;;;;;;;12.98;4.25;;;;;;;17.63;100.00;101048.44;1641425;87;20939;-81
2021/08/19 00:38:25;;;;;;;4.37;2.62;;;;;;;17.66;100.00;101059.14;1641570;87;20943;-81
2021/08/19 00:40:52;;;;;;;5.72;2.83;;;;;;;17.70;100.00;101070.55;1641393;87;21163;-82
2021/08/19 00:43:21;;;;;;;4.80;2.58;;;;;;;17.75;100.00;101088.02;1644981;86;20883;-81
2021/08/19 00:45:50;;;;;;;4.33;2.25;;;;;;;17.83;100.00;101107.04;1649817;87;21019;-81
2021/08/19 00:48:19;;;;;;;4.83;3.00;;;;;;;17.90;100.00;101111.59;1649898;87;20895;-81
2021/08/19 00:50:47;;;;;;;4.45;2.95;;;;;;;17.96;100.00;101094.48;1650193;87;21589;-82
2021/08/19 00:53:18;;;;;;;4.42;2.72;;;;;;;17.94;100.00;101069.65;1649970;87;20907;-78
2021/08/19 00:55:45;;;;;;;5.37;2.95;;;;;;;17.89;100.00;101027.72;1650124;87;21007;-83
2021/08/19 00:58:13;;;;;;;4.40;2.83;;;;;;;17.81;100.00;100992.95;1650134;87;21022;-82
2021/08/19 01:00:42;;;;;;;3.22;2.83;;;;;;;17.78;100.00;100971.41;1622624;87;21524;-82
2021/08/19 01:03:09;;;;;;;6.12;2.60;;;;;;;17.72;100.00;100960.98;1650268;87;21030;-83
2021/08/19 01:05:37;;;;;;;4.15;2.60;;;;;;;17.72;100.00;100960.98;1649903;87;21985;-89
2021/08/19 01:08:07;;;;;;;5.20;3.08;;;;;;;17.72;100.00;100953.59;1650060;87;21011;-87
2021/08/19 01:10:37;;;;;;;3.77;2.50;;;;;;;17.75;100.00;100938.87;1650153;87;21034;-88
2021/08/19 01:13:05;;;;;;;3.90;2.15;;;;;;;17.78;100.00;100935.48;1650133;87;21007;-85
2021/08/19 01:15:34;;;;;;;5.25;3.30;;;;;;;17.85;100.00;100931.81;1649912;87;20974;-88
2021/08/19 01:18:02;;;;;;;5.40;2.20;;;;;;;17.90;100.00;100919.91;1649942;87;21011;-87
2021/08/19 01:20:31;;;;;;;3.77;2.62;;;;;;;17.95;100.00;100896.70;1649919;87;22375;-83
2021/08/19 01:23:00;;;;;;;4.28;2.25;;;;;;;18.00;100.00;100871.31;1650214;87;21762;-82
2021/08/19 01:25:27;;;;;;;3.10;2.15;;;;;;;18.01;100.00;100858.53;1649769;87;21082;-85
2021/08/19 01:27:55;;;;;;;2.65;2.20;;;;;;;18.00;100.00;100848.19;1649971;85;21021;-82
2021/08/19 01:30:24;;;;;;;2.87;2.25;;;;;;;17.98;100.00;100858.34;1649857;87;21134;-84
2021/08/19 01:32:50;;;;;;;3.17;2.70;;;;;;;17.95;100.00;100845.50;1650389;87;20883;-81
2021/08/19 01:35:26;;;;;;;3.98;2.52;;;;;;;17.96;100.00;100822.70;1650027;87;20951;-81
2021/08/19 01:37:53;;;;;;;2.98;2.58;;;;;;;17.96;100.00;100805.63;1650075;87;21533;-82
2021/08/19 01:40:22;;;;;;;4.25;2.77;;;;;;;17.94;100.00;100824.14;1649819;87;21034;-86
2021/08/19 01:42:50;;;;;;;4.12;3.22;;;;;;;17.89;100.00;100903.84;1648942;87;20951;-83
2021/08/19 01:45:18;;;;;;;3.52;2.98;;;;;;;17.82;100.00;100951.31;1641387;87;20951;-85
2021/08/19 01:47:47;;;;;;;4.75;3.10;;;;;;;17.72;100.00;100947.86;1641323;87;21033;-84
2021/08/19 01:50:15;;;;;;;3.30;2.98;;;;;;;17.68;100.00;100986.33;1641391;87;21537;-86
2021/08/19 01:52:44;;;;;;;6.33;3.05;;;;;;;17.61;100.00;100988.70;1641795;87;21006;-84
2021/08/19 01:55:13;;;;;;;4.28;2.90;;;;;;;17.60;100.00;100996.22;1641489;87;21004;-83
2021/08/19 01:57:40;;;;;;;2.80;2.60;;;;;;;17.61;100.00;100999.69;1641453;87;20907;-81
2021/08/19 02:00:09;;;;;;;3.80;2.72;;;;;;;17.60;100.00;100996.70;1641610;87;21446;-82
2021/08/19 02:02:37;;;;;;;2.95;1.92;;;;;;;17.61;100.00;100987.88;1641392;87;20935;-84
2021/08/19 02:05:06;;;;;;;4.08;2.30;;;;;;;17.62;100.00;100975.08;1641480;87;21569;-81
2021/08/19 02:07:34;;;;;;;2.62;2.00;;;;;;;17.67;100.00;100967.16;1641451;87;21270;-81
2021/08/19 02:10:03;;;;;;;4.50;1.98;;;;;;;17.70;100.00;100945.04;1641428;87;20983;-83
2021/08/19 02:12:30;;;;;;;2.60;2.22;;;;;;;17.76;100.00;100954.98;1641825;87;21561;-79
2021/08/19 02:14:56;;;;;;;2.45;2.22;;;;;;;17.81;100.00;100945.70;1641583;87;20956;-81
2021/08/19 02:17:25;;;;;;;3.00;2.10;;;;;;;17.85;100.00;100960.70;1641426;87;21114;-80
2021/08/19 02:19:52;;;;;;;2.62;2.22;;;;;;;17.86;100.00;100968.45;1641203;87;21176;-86
2021/08/19 02:22:20;;;;;;;3.22;2.27;;;;;;;17.86;100.00;100978.95;1641444;87;20963;-84
2021/08/19 02:24:48;;;;;;;3.70;2.55;;;;;;;17.86;100.00;100974.17;1641259;87;20927;-81
2021/08/19 02:27:15;;;;;;;3.25;2.17;;;;;;;17.83;100.00;100967.41;1641551;87;21031;-83
2021/08/19 02:29:42;;;;;;;3.45;2.25;;;;;;;17.82;100.00;100962.29;1641538;87;21054;-85
2021/08/19 02:32:08;;;;;;;4.65;2.10;;;;;;;17.78;100.00;100972.72;1641405;87;21168;-86
2021/08/19 02:34:36;;;;;;;3.77;2.40;;;;;;;17.78;100.00;100968.30;1619135;87;21032;-82
2021/08/19 02:37:03;;;;;;;2.70;2.12;;;;;;;17.78;100.00;100968.30;1641658;87;21077;-80
2021/08/19 02:39:30;;;;;;;3.80;2.42;;;;;;;17.77;100.00;100973.20;1641248;87;21141;-84
2021/08/19 02:41:57;;;;;;;3.00;2.30;;;;;;;17.78;100.00;100973.55;1641681;87;20976;-83
2021/08/19 02:44:24;;;;;;;3.60;2.10;;;;;;;17.77;100.00;100977.14;1641335;85;21185;-82
2021/08/19 02:46:51;;;;;;;3.05;2.10;;;;;;;17.75;100.00;100976.45;1641549;87;21046;-81
2021/08/19 02:49:18;;;;;;;2.90;1.95;;;;;;;17.73;100.00;100986.76;1641392;87;21033;-83
2021/08/19 02:51:47;;;;;;;1.95;1.75;;;;;;;17.66;100.00;100981.23;1641468;87;20900;-83
2021/08/19 02:54:13;;;;;;;2.95;2.20;;;;;;;17.66;100.00;100970.73;1641451;87;21015;-80
2021/08/19 02:56:41;;;;;;;2.85;2.02;;;;;;;17.66;100.00;100980.41;1641272;87;21173;-84
2021/08/19 02:59:07;;;;;;;3.40;2.30;;;;;;;17.62;100.00;100987.72;1641332;87;21696;-82
2021/08/19 03:01:34;;;;;;;2.67;1.60;;;;;;;17.58;100.00;101002.59;1641433;87;21027;-86
2021/08/19 03:04:01;;;;;;;1.92;1.65;;;;;;;17.53;100.00;101009.52;1641454;87;21062;-79
2021/08/19 03:06:28;;;;;;;1.95;1.35;;;;;;;17.51;100.00;101008.83;1641137;87;21075;-79
2021/08/19 03:08:55;;;;;;;1.37;1.27;;;;;;;17.44;100.00;101005.92;1641455;87;21175;-82
2021/08/19 03:11:23;;;;;;;3.65;1.60;;;;;;;17.44;100.00;101005.92;1641258;87;21639;-79
2021/08/19 03:13:53;;;;;;;1.77;1.50;;;;;;;17.45;100.00;101012.01;1641516;87;21041;-80
2021/08/19 03:16:20;;;;;;;2.77;1.80;;;;;;;17.41;100.00;101000.12;1641181;87;20923;-82
2021/08/19 03:18:47;;;;;;;3.22;1.62;;;;;;;17.39;100.00;100994.99;1641430;87;21454;-79
2021/08/19 03:21:17;;;;;;;2.05;1.50;;;;;;;17.38;100.00;101011.72;1641654;87;21135;-81
2021/08/19 03:23:43;;;;;;;2.12;1.62;;;;;;;17.38;100.00;101004.33;1641463;87;20967;-78
2021/08/19 03:26:12;;;;;;;1.55;1.40;;;;;;;17.39;100.00;101008.59;1641532;87;21514;-84
2021/08/19 03:28:41;;;;;;;2.75;1.82;;;;;;;17.40;100.00;101005.01;1641433;87;21479;-84
2021/08/19 03:31:07;;;;;;;2.17;1.98;;;;;;;17.39;100.00;101008.11;1641564;87;21086;-82
2021/08/19 03:33:37;;;;;;;1.60;1.50;;;;;;;17.41;100.00;101014.55;1641223;87;21901;-79
2021/08/19 03:36:05;;;;;;;3.12;2.10;;;;;;;17.42;100.00;101013.59;1641441;87;21583;-76
2021/08/19 03:38:32;;;;;;;3.33;1.85;;;;;;;17.42;100.00;101017.02;1641509;87;21019;-81
2021/08/19 03:40:59;;;;;;;2.27;1.98;;;;;;;17.42;100.00;101017.53;1641405;87;20943;-82
2021/08/19 03:43:26;;;;;;;2.17;1.90;;;;;;;17.43;100.00;101021.79;1642105;86;21038;-80
2021/08/19 03:45:53;;;;;;;3.00;2.70;;;;;;;17.44;100.00;101026.08;1650266;87;21137;-81
2021/08/19 03:48:21;;;;;;;4.45;3.40;;;;;;;17.45;100.00;101031.17;1649993;87;20939;-82
2021/08/19 03:50:48;;;;;;;4.58;3.22;;;;;;;17.47;100.00;101041.55;1650227;87;21006;-83
2021/08/19 03:53:15;;;;;;;4.05;3.12;;;;;;;17.44;100.00;101041.83;1649816;87;21026;-85
2021/08/19 03:55:41;;;;;;;3.50;3.20;;;;;;;17.41;100.00;101036.38;1650700;87;21066;-76
2021/08/19 03:58:08;;;;;;;3.62;3.33;;;;;;;17.39;100.00;101042.22;1650078;87;21799;-83
2021/08/19 04:00:35;;;;;;;3.70;3.30;;;;;;;17.42;100.00;101036.70;1649641;87;21553;-79
2021/08/19 04:03:02;;;;;;;3.37;3.00;;;;;;;17.42;100.00;101031.96;1650283;87;20998;-77
2021/08/19 04:05:31;;;;;;;6.50;2.92;;;;;;;17.44;100.00;101043.14;1649837;87;21066;-79
2021/08/19 04:07:58;;;;;;;3.52;3.17;;;;;;;17.48;100.00;101045.01;1650333;87;20915;-76
2021/08/19 04:10:25;;;;;;;3.72;2.90;;;;;;;17.51;100.00;101044.25;1649904;87;21129;-79
2021/08/19 04:12:53;;;;;;;5.10;2.27;;;;;;;17.54;100.00;101048.39;1649701;87;21078;-76
2021/08/19 04:15:21;;;;;;;4.53;2.62;;;;;;;17.54;100.00;101053.16;1650424;87;21023;-81
2021/08/19 04:17:52;;;;;;;2.95;2.20;;;;;;;17.54;100.00;101047.92;1651274;87;21003;-88
2021/08/19 04:20:20;;;;;;;2.42;2.22;;;;;;;17.54;100.00;101046.61;1650142;87;20955;-79
2021/08/19 04:22:48;;;;;;;2.98;2.62;;;;;;;17.54;100.00;101054.48;1650014;87;21612;-78
2021/08/19 04:25:16;;;;;;;2.67;2.45;;;;;;;17.52;100.00;101057.70;1649958;87;20991;-79
2021/08/19 04:27:44;;;;;;;2.90;2.60;;;;;;;17.49;100.00;101050.10;1650227;87;20970;-80
2021/08/19 04:30:12;;;;;;;3.80;2.40;;;;;;;17.48;100.00;101062.39;1650307;87;21038;-79
2021/08/19 04:32:38;;;;;;;2.75;2.40;;;;;;;17.47;100.00;101058.61;1650378;87;21102;-78
2021/08/19 04:35:06;;;;;;;2.85;2.55;;;;;;;17.49;100.00;101060.59;1650403;87;21122;-78
2021/08/19 04:37:34;;;;;;;3.62;2.20;;;;;;;17.54;100.00;101063.66;1650268;87;21544;-80
2021/08/19 04:40:05;;;;;;;2.52;2.33;;;;;;;17.57;100.00;101062.11;1650287;87;21363;-84
2021/08/19 04:42:33;;;;;;;2.45;2.25;;;;;;;17.60;100.00;101063.63;1650314;87;21543;-84
2021/08/19 04:45:00;;;;;;;2.42;2.22;;;;;;;17.62;100.00;101066.93;1650208;85;20976;-85
2021/08/19 04:47:26;;;;;;;2.00;1.87;;;;;;;17.63;100.00;101058.94;1649937;87;21172;-78
2021/08/19 04:49:54;;;;;;;2.35;2.08;;;;;;;17.61;100.00;101062.19;1650115;87;20939;-83
2021/08/19 04:52:21;;;;;;;2.67;2.42;;;;;;;17.60;100.00;101064.94;1650210;87;20974;-82
2021/08/19 04:54:49;;;;;;;3.75;2.60;;;;;;;17.56;100.00;101063.06;1650102;87;21003;-84
2021/08/19 04:57:16;;;;;;;2.37;2.00;;;;;;;17.54;100.00;101068.08;1650575;87;21071;-82
2021/08/19 04:59:43;;;;;;;2.10;1.90;;;;;;;17.46;100.00;101063.02;1650588;87;21978;-80
2021/08/19 05:02:10;;;;;;;4.08;2.80;;;;;;;17.43;100.00;101065.08;1650119;87;20982;-84
2021/08/19 05:04:36;;;;;;;3.92;2.42;;;;;;;17.42;100.00;101060.31;1650210;87;21122;-83
2021/08/19 05:07:03;;;;;;;1.98;1.85;;;;;;;17.45;100.00;101056.61;1650081;87;20966;-82
2021/08/19 05:09:30;;;;;;;2.30;2.10;;;;;;;17.48;100.00;101062.90;1650036;87;21070;-84
2021/08/19 05:11:59;;;;;;;2.62;2.33;;;;;;;17.51;100.00;101058.69;1650129;87;21438;-86
2021/08/19 05:14:26;;;;;;;2.87;2.45;;;;;;;17.57;100.00;101061.28;1649849;87;20930;-79
2021/08/19 05:16:53;;;;;;;2.15;1.90;;;;;;;17.60;100.00;101054.44;1649929;87;21053;-83
2021/08/19 05:19:20;;;;;;;2.10;1.75;;;;;;;17.63;100.00;101053.69;1649966;87;21030;-79
2021/08/19 05:21:49;;;;;;;2.08;1.87;;;;;;;17.70;100.00;101066.62;1650141;87;20943;-81
2021/08/19 05:24:16;;;;;;;2.40;1.95;;;;;;;17.79;100.00;101064.95;1650001;87;21557;-82
2021/08/19 05:26:45;;;;;;;1.72;1.62;;;;;;;17.87;100.00;101065.91;1650031;87;21054;-80
2021/08/19 05:29:12;;;;;;;3.08;2.10;;;;;;;17.93;100.00;101064.55;1649983;87;21555;-79
2021/08/19 05:31:44;;;;;;;2.40;2.02;;;;;;;17.99;100.00;101064.00;1648920;87;21093;-86
2021/08/19 05:34:14;;;;;;;2.40;2.20;;;;;;;18.07;100.00;101063.28;1650963;87;21268;-84
2021/08/19 05:36:43;;;;;;;2.70;2.50;;;;;;;18.12;100.00;101066.34;1650799;86;21967;-83
2021/08/19 05:39:10;;;;;;;2.33;2.10;;;;;;;18.15;100.00;101066.05;1650067;87;21045;-87
2021/08/19 05:41:40;;;;;;;2.47;2.25;;;;;;;18.16;100.00;101068.53;1650777;87;20927;-81
2021/08/19 05:44:09;;;;;;;5.28;2.17;;;;;;;18.19;100.00;101070.04;1649757;85;21010;-81
2021/08/19 05:46:44;;;;;;;2.52;2.33;;;;;;;18.21;100.00;101066.33;1643248;87;20983;-84
2021/08/19 05:49:20;;;;;;;2.70;2.50;;;;;;;18.23;100.00;101056.98;1642649;86;21525;-83
2021/08/19 05:51:52;;;;;;;3.02;2.50;;;;;;;18.21;100.00;101058.92;1642558;87;21522;-85
2021/08/19 05:54:19;;;;;;;2.72;2.52;;;;;;;18.16;100.00;101058.50;1641546;87;21458;-80
2021/08/19 05:56:47;;;;;;;2.90;2.60;;;;;;;18.14;100.00;101060.45;1641917;87;21027;-86
2021/08/19 05:59:14;;;;;;;2.50;2.30;;;;;;;18.13;100.00;101062.24;1641429;87;21062;-80
2021/08/19 06:01:40;;;;;;;5.25;2.50;;;;;;;18.15;100.00;101060.80;1641724;87;21142;-83
2021/08/19 06:04:07;;;;;;;3.37;2.67;;;;;;;18.13;100.00;101060.92;1641025;87;20952;-78
2021/08/19 06:06:34;;;;;;;3.33;3.02;;;;;;;18.17;100.00;101068.88;1640828;87;21070;-79
2021/08/19 06:09:02;;;;;;;3.12;2.70;;;;;;;18.22;100.00;101063.22;1641391;87;21597;-81
2021/08/19 06:11:31;;;;;;;2.90;2.40;;;;;;;18.31;100.00;101060.58;1641410;87;21045;-81
2021/08/19 06:13:59;;;;;;;2.87;2.55;;;;;;;18.40;100.00;101057.09;1641550;87;22029;-81
2021/08/19 06:16:25;;;;;;;3.05;2.72;;;;;;;18.51;100.00;101062.69;1641482;87;21089;-82
2021/08/19 06:18:52;;;;;;;2.60;2.40;;;;;;;18.60;100.00;101061.02;1641444;87;21592;-81
2021/08/19 06:21:22;;;;;;;3.25;2.55;;;;;;;18.69;100.00;101066.25;1641225;87;20936;-78
2021/08/19 06:23:50;;;;;;;2.70;2.30;;;;;;;18.75;100.00;101057.78;1641471;87;21002;-80
2021/08/19 06:26:17;;;;;;;3.00;2.70;;;;;;;18.82;100.00;101058.88;1641524;87;21868;-84
2021/08/19 06:28:44;;;;;;;3.10;2.62;;;;;;;18.85;100.00;101057.27;1641361;87;21046;-84
2021/08/19 06:31:11;;;;;;;3.12;2.83;;;;;;;18.95;100.00;101063.28;1641437;87;21491;-80
2021/08/19 06:33:38;;;;;;;3.02;2.80;;;;;;;19.01;100.00;101058.79;1641399;86;20975;-79
2021/08/19 06:36:07;;;;;;;3.17;2.87;;;;;;;19.08;100.00;101060.83;1641479;87;20970;-81
2021/08/19 06:38:33;;;;;;;3.47;3.17;;;;;;;19.11;100.00;101062.69;1641155;87;21820;-82
2021/08/19 06:41:00;;;;;;;3.30;3.00;;;;;;;19.06;100.00;101070.65;1641538;87;21035;-79
2021/08/19 06:43:27;;;;;;;3.47;3.17;;;;;;;18.99;100.00;101068.61;1641648;87;21011;-79
2021/08/19 06:45:54;;;;;;;5.12;3.20;;;;;;;19.05;100.00;101062.44;1646806;86;21069;-80
2021/08/19 06:48:21;;;;;;;4.37;3.92;;;;;;;19.20;100.00;101063.59;1650018;87;20993;-84
2021/08/19 06:50:47;;;;;;;3.85;3.47;;;;;;;19.30;100.00;101062.58;1650115;87;21177;-81
2021/08/19 06:53:15;;;;;;;4.17;3.42;;;;;;;19.34;100.00;101063.92;1649833;87;21022;-78
2021/08/19 06:55:41;;;;;;;3.65;3.33;;;;;;;19.33;100.00;101056.19;1649993;87;21073;-86
2021/08/19 06:58:08;;;;;;;4.00;3.42;;;;;;;19.36;100.00;101060.67;1649950;87;21118;-81
2021/08/19 07:00:35;;;;;;;7.72;3.75;;;;;;;19.51;100.00;101063.64;1650031;87;21501;-80
2021/08/19 07:03:03;;;;;;;8.40;4.15;;;;;;;19.67;100.00;101062.49;1650013;87;21177;-77
2021/08/19 07:05:29;;;;;;;3.77;3.47;;;;;;;19.76;99.81;101064.22;1649820;87;21039;-79
2021/08/19 07:07:59;;;;;;;3.77;3.35;;;;;;;19.79;98.34;101067.03;1649889;87;20951;-79
2021/08/19 07:10:27;;;;;;;5.22;3.80;;;;;;;19.84;98.04;101072.70;1649700;87;37819;-78
2021/08/19 07:12:54;;;;;;;6.50;3.35;;;;;;;19.92;97.98;101075.39;1649785;87;21103;-82
2021/08/19 07:15:21;;;;;;;7.62;3.80;;;;;;;19.95;95.32;101072.45;1650014;87;21145;-81
2021/08/19 07:17:47;;;;;;;3.65;3.22;;;;;;;19.91;93.93;101069.80;1650045;87;20915;-77
2021/08/19 07:20:15;;;;;;;5.08;3.67;;;;;;;19.93;95.20;101064.72;1649761;87;21019;-81
2021/08/19 07:22:45;;;;;;;6.37;4.83;;;;;;;20.10;94.66;101071.44;1649830;87;21608;-78
2021/08/19 07:25:13;;;;;;;4.12;3.50;;;;;;;20.24;94.26;101076.98;1649897;87;21086;-80
2021/08/19 07:27:40;;;;;;;5.85;3.55;;;;;;;20.36;89.71;101075.77;1649695;87;21157;-84
2021/08/19 07:30:08;;;;;;;4.87;3.90;;;;;;;20.33;87.75;101077.89;1649854;87;20959;-84
2021/08/19 07:32:35;;;;;;;5.10;4.08;;;;;;;20.29;88.19;101087.11;1650221;87;20979;-80
2021/08/19 07:35:02;;;;;;;4.22;3.83;;;;;;;20.27;87.26;101087.73;1650148;87;21571;-78
2021/08/19 07:37:30;;;;;;;5.10;3.22;;;;;;;20.26;87.83;101078.98;1650108;87;21085;-84
2021/08/19 07:39:56;;;;;;;4.80;3.80;;;;;;;20.39;89.99;101084.69;1650035;87;21140;-80
2021/08/19 07:42:23;;;;;;;6.65;3.27;;;;;;;20.54;88.58;101087.61;1649811;87;21026;-79
2021/08/19 07:44:49;;;;;;;4.28;3.47;;;;;;;20.60;87.58;101083.03;1649110;87;20918;-82
2021/08/19 07:47:16;;;;;;;4.47;4.00;;;;;;;20.63;88.86;101082.72;1641307;87;20931;-77
2021/08/19 07:49:43;;;;;;;5.80;3.85;;;;;;;20.77;88.97;101086.08;1641619;87;21068;-82
2021/08/19 07:52:09;;;;;;;7.37;4.20;;;;;;;20.90;87.31;101082.52;1641416;87;21841;-81
2021/08/19 07:54:37;;;;;;;7.55;3.70;;;;;;;20.90;84.53;101073.29;1641240;87;21027;-80
2021/08/19 07:57:04;;;;;;;5.08;4.35;;;;;;;20.96;86.80;101073.97;1641403;87;21553;-86
2021/08/19 07:59:32;;;;;;;4.67;3.77;;;;;;;21.11;86.33;101079.53;1641534;87;20971;-86
2021/08/19 08:01:59;;;;;;;5.60;3.67;;;;;;;21.22;85.42;101078.42;1641453;87;21470;-81
2021/08/19 08:04:26;;;;;;;4.20;3.62;;;;;;;21.34;84.47;101077.14;1641498;87;21152;-79
2021/08/19 08:06:53;;;;;;;4.30;3.67;;;;;;;21.46;83.85;101079.31;1641385;87;20971;-86
2021/08/19 08:09:20;;;;;;;5.20;4.28;;;;;;;21.57;82.61;101078.16;1641439;87;21517;-80
2021/08/19 08:11:48;;;;;;;5.05;3.60;;;;;;;21.56;79.56;101079.17;1641616;87;20955;-82
2021/08/19 08:14:15;;;;;;;3.62;3.30;;;;;;;21.43;79.63;101083.60;1641236;87;21007;-81
2021/08/19 08:16:42;;;;;;;5.50;3.62;;;;;;;21.37;79.83;101068.89;1641393;87;21125;-83
2021/08/19 08:19:08;;;;;;;4.30;3.90;;;;;;;21.44;81.27;101068.07;1641322;87;21026;-85
2021/08/19 08:21:38;;;;;;;5.50;4.10;;;;;;;21.54;79.34;101072.72;1641550;87;21519;-87
2021/08/19 08:24:08;;;;;;;4.03;3.62;;;;;;;21.51;78.17;101069.09;1641304;87;20947;-82
2021/08/19 08:26:35;;;;;;;4.83;3.58;;;;;;;21.47;77.22;101077.02;1641422;87;21039;-86
2021/08/19 08:29:02;;;;;;;3.83;3.22;;;;;;;21.40;75.52;101077.33;1641463;87;21100;-82
2021/08/19 08:31:31;;;;;;;5.42;3.00;;;;;;;21.36;77.16;101069.88;1641336;87;20991;-85
2021/08/19 08:33:58;;;;;;;4.65;3.25;;;;;;;21.42;76.52;101075.83;1641635;87;21533;-83
2021/08/19 08:36:27;;;;;;;5.08;3.37;;;;;;;21.55;76.54;101070.91;1642118;87;20892;-80
2021/08/19 08:38:55;;;;;;;5.12;3.58;;;;;;;21.74;75.58;101071.94;1644370;87;20968;-84
2021/08/19 08:41:22;;;;;;;7.45;4.12;;;;;;;21.91;75.88;101072.81;1613854;89;21168;-83
2021/08/19 08:43:53;;;;;;;6.90;3.70;;;;;;;21.96;73.78;101075.28;1613536;89;21140;-86
2021/08/19 08:46:19;;;;;;;5.22;3.35;;;;;;;21.90;72.79;101071.98;1626238;86;21426;-84
2021/08/19 08:48:46;;;;;;;3.37;3.08;;;;;;;21.74;71.53;101075.06;1635696;87;21011;-86
2021/08/19 08:51:13;;;;;;;3.83;3.00;;;;;;;21.63;72.49;101074.91;1635457;87;21022;-82
2021/08/19 08:53:43;;;;;;;8.55;3.25;;;;;;;21.69;71.70;101070.78;1628538;86;20947;-84
2021/08/19 08:56:11;;;;;;;3.62;3.10;;;;;;;21.82;71.70;101074.60;1635532;86;21026;-82
2021/08/19 08:58:41;;;;;;;5.20;3.52;;;;;;;21.86;67.71;101077.23;1635593;87;20948;-83
2021/08/19 09:01:08;;;;;;;5.47;2.83;;;;;;;21.85;67.76;101068.16;1635631;87;21034;-85
2021/08/19 09:03:37;;;;;;;3.65;2.90;;;;;;;22.00;69.62;101074.47;1635527;87;21569;-85
2021/08/19 09:06:07;;;;;;;3.65;2.80;;;;;;;22.24;69.38;101071.80;1635891;87;24600;-83
2021/08/19 09:08:34;;;;;;;4.42;3.30;;;;;;;22.45;68.12;101069.48;1611509;87;21007;-82
2021/08/19 09:11:02;;;;;;;4.90;3.33;;;;;;;22.57;66.38;101077.87;1613450;87;20903;-81
2021/08/19 09:13:30;;;;;;;4.25;2.83;;;;;;;22.52;65.75;101065.67;1633305;86;21039;-85
2021/08/19 09:16:19;;;;;;;3.65;2.87;;;;;;;22.58;66.78;101070.28;1635781;87;20886;-80
2021/08/19 09:18:49;;;;;;;3.15;2.45;;;;;;;22.65;64.07;101072.09;1635817;87;21482;-83
2021/08/19 09:21:25;;;;;;;3.62;3.02;;;;;;;22.63;62.87;101068.77;1635421;87;21545;-84
2021/08/19 09:24:14;;;;;;;4.42;3.00;;;;;;;22.58;64.33;101068.95;1635755;87;21087;-83
2021/08/19 09:26:42;;;;;;;4.60;2.83;;;;;;;22.41;63.99;101069.48;1635705;87;21127;-85
2021/08/19 09:29:30;;;;;;;7.20;3.05;;;;;;;22.24;65.17;101067.04;1635798;87;20951;-81
2021/08/19 09:32:16;;;;;;;3.45;2.83;;;;;;;22.17;64.11;101068.69;1635490;86;21076;-84
2021/08/19 09:34:49;;;;;;;4.55;2.10;;;;;;;22.20;62.60;101069.19;1635864;86;21599;-84
2021/08/19 09:37:19;;;;;;;3.33;2.10;;;;;;;22.21;59.26;101076.10;1635785;86;20860;-80
2021/08/19 09:40:01;;;;;;;6.65;2.22;;;;;;;22.31;60.49;101073.28;1635670;87;20951;-83
2021/08/19 09:42:39;;;;;;;3.58;2.50;;;;;;;22.56;59.60;101076.22;1635852;87;20931;-84
2021/08/19 09:45:20;;;;;;;4.75;2.67;;;;;;;22.81;58.83;101073.06;1635766;87;21034;-86
2021/08/19 09:47:47;;;;;;;4.72;2.95;;;;;;;22.86;59.70;101079.49;1635387;87;21415;-85
2021/08/19 09:50:26;;;;;;;3.37;2.40;;;;;;;22.90;59.32;101083.95;1635525;87;20951;-83
2021/08/19 09:52:53;;;;;;;4.28;2.50;;;;;;;22.94;58.58;101079.45;1635692;87;20975;-82
2021/08/19 09:55:29;;;;;;;4.12;2.30;;;;;;;22.99;59.48;101081.10;1635572;87;20952;-87
2021/08/19 09:57:58;;;;;;;5.08;2.00;;;;;;;23.13;58.19;101084.86;1635763;87;21481;-82
2021/08/19 10:00:32;;;;;;;2.45;1.87;;;;;;;24.00;55.72;101078.38;1635532;87;20979;-85
2021/08/19 10:02:59;;;;;;;2.87;2.05;;;;;;;25.27;52.46;101085.20;1635905;87;20964;-83
2021/08/19 10:05:26;;;;;;;5.08;2.12;;;;;;;25.86;50.11;101074.41;1635615;86;20995;-81
2021/08/19 10:07:55;;;;;;;2.58;2.37;;;;;;;26.01;49.50;101069.01;1635605;87;20966;-84
2021/08/19 10:10:21;;;;;;;2.10;1.90;;;;;;;25.72;48.17;101066.81;1635792;87;21099;-81
2021/08/19 10:12:49;;;;;;;2.75;2.50;;;;;;;25.59;48.65;101067.20;1635541;87;20949;-80
2021/08/19 10:15:16;;;;;;;3.25;2.22;;;;;;;26.35;48.47;101056.33;1635557;86;20990;-84
2021/08/19 10:17:58;;;;;;;3.35;1.80;;;;;;;26.93;46.13;101061.19;1635791;87;20974;-81
2021/08/19 10:20:36;;;;;;;2.30;2.02;;;;;;;26.42;46.49;101063.33;1636025;87;21528;-87
2021/08/19 10:23:03;;;;;;;5.55;2.25;;;;;;;26.02;47.82;101066.67;1635800;87;21086;-81
2021/08/19 10:25:29;;;;;;;3.10;1.87;;;;;;;26.20;47.22;101071.05;1635621;87;22477;-81
2021/08/19 10:28:21;;;;;;;2.05;1.80;;;;;;;26.30;43.65;101062.22;1635674;87;20963;-86
2021/08/19 10:30:55;;;;;;;4.45;1.75;;;;;;;26.20;45.26;101069.71;1635744;87;21023;-83
2021/08/19 10:33:41;;;;;;;4.92;2.05;;;;;;;26.53;44.30;101064.13;1635588;87;21560;-82
2021/08/19 10:36:16;;;;;;;2.12;1.90;;;;;;;26.50;43.16;101057.04;1635690;87;21781;-81
2021/08/19 10:38:43;;;;;;;3.27;1.90;;;;;;;26.29;43.82;101058.73;1635617;87;21038;-81
2021/08/19 10:41:35;;;;;;;5.80;2.20;;;;;;;25.95;44.71;101061.80;1657767;86;20955;-84
2021/08/19 10:44:04;;;;;;;2.65;2.12;;;;;;;25.55;44.20;101060.11;1635620;87;20936;-79
2021/08/19 10:46:41;;;;;;;3.60;2.05;;;;;;;25.16;45.27;101051.66;1608231;88;21074;-83
2021/08/19 10:49:31;;;;;;;2.47;1.80;;;;;;;25.17;45.52;101052.81;1625267;88;21780;-82
2021/08/19 10:52:15;;;;;;;2.27;1.95;;;;;;;25.16;45.05;101064.44;1625165;88;20899;-86
2021/08/19 10:54:46;;;;;;;3.72;2.02;;;;;;;24.95;45.86;101058.25;1619765;87;21085;-80
2021/08/19 10:57:30;;;;;;;2.30;1.87;;;;;;;24.87;47.29;101063.14;1625234;88;21058;-81
2021/08/19 11:00:05;;;;;;;2.72;1.82;;;;;;;24.74;47.12;101059.78;1625235;88;21576;-81
2021/08/19 11:02:42;;;;;;;2.12;1.87;;;;;;;24.72;47.95;101063.63;1625034;88;21792;-86
2021/08/19 11:05:22;;;;;;;3.52;2.08;;;;;;;24.69;48.14;101066.66;1625071;88;21572;-81
2021/08/19 11:07:56;;;;;;;1.90;1.77;;;;;;;24.61;47.97;101062.24;1625055;88;21603;-82
2021/08/19 11:10:36;;;;;;;4.42;2.10;;;;;;;24.63;46.41;101059.42;1625261;88;21636;-84
2021/08/19 11:13:12;;;;;;;2.83;1.98;;;;;;;24.60;47.59;101050.50;1625283;88;21043;-82
2021/08/19 11:15:50;;;;;;;11.68;2.98;;;;;;;24.67;47.39;101058.03;1625280;88;21189;-85
2021/08/19 11:18:30;;;;;;;4.03;2.27;;;;;;;24.68;47.45;101061.02;1603629;88;21635;-86
2021/08/19 11:21:00;;;;;;;3.00;1.95;;;;;;;24.59;46.86;101047.52;1625061;88;21656;-83
2021/08/19 11:23:34;;;;;;;5.83;2.52;;;;;;;24.50;46.97;101045.46;1625238;88;21054;-84
2021/08/19 11:26:13;;;;;;;4.25;1.90;;;;;;;24.54;46.65;101044.56;1625498;88;21086;-86
2021/08/19 11:28:45;;;;;;;3.80;2.50;;;;;;;24.72;45.49;101059.65;1620782;87;21164;-83